M/V Bugra Tomba — TCEJ — position and weather

sailwx.info

Track history (hours):
 
Tides and Currents Weather Stations Pressure Air Temp Water Temp Dewpoint Dewpoint Depression Visibility Wind Speed Wind Dir Waves Ship Positions

M/V Bugra Tomba

Last reported at 2015-Mar-25 20:09 UTC. Time now 2015-Mar-28 14:22 UTC.
Position N 42°11' E 028°23'.

Length 99 m; draft 3.7 m.

Type: Ship (hazmat cat D). MMSI: 271000025.

Date/timePositionNaut miles runAvg speedWind from/ knotsBaromVisibWave heightAir tempDewpointWater temp
2015-Mar-25 20:09N 42°11' E 028°23'3910.7
2015-Mar-25 16:28N 41°39' E 028°53'1110.5
2015-Mar-25 15:24N 41°29' E 029°02'910.6
2015-Mar-25 14:33N 41°21' E 029°07'24 7.9
2015-Mar-25 11:33N 40°58' E 028°59'4 4.4
2015-Mar-25 10:33N 40°58' E 028°53'0 0.0
2015-Mar-25 06:33N 40°58' E 028°53'0 0.0
2015-Mar-25 05:33N 40°58' E 028°53'0 0.0
2015-Mar-25 03:03N 40°58' E 028°53'0 0.0
2015-Mar-24 21:15N 40°58' E 028°53'0 0.0
2015-Mar-24 20:32N 40°58' E 028°53'0 0.0
2015-Mar-24 19:30N 40°58' E 028°53'2 1.9
2015-Mar-24 18:30N 40°57' E 028°55'1010.2
2015-Mar-24 17:33N 40°54' E 029°07'3 2.8
2015-Mar-24 16:31N 40°53' E 029°11'0 0.0
2015-Mar-24 15:13N 40°53' E 029°11'0 0.0
2015-Mar-24 14:31N 40°53' E 029°11'0 0.1
2015-Mar-24 13:25N 40°53' E 029°11'0 0.0
2015-Mar-24 12:31N 40°53' E 029°11'0 0.1
2015-Mar-24 11:25N 40°53' E 029°11'0 0.0
2015-Mar-24 09:31N 40°53' E 029°11'0 0.0
2015-Mar-24 08:31N 40°53' E 029°11'0 0.0
2015-Mar-24 07:19N 40°53' E 029°11'0 0.0
2015-Mar-24 06:31N 40°53' E 029°11'0 0.0
2015-Mar-24 05:31N 40°53' E 029°11'0 0.0
2015-Mar-24 04:31N 40°53' E 029°11'0 0.0
2015-Mar-24 03:31N 40°53' E 029°11'0 0.0
2015-Mar-24 02:31N 40°53' E 029°11'0 0.0
2015-Mar-24 01:31N 40°53' E 029°11'0 0.0
2015-Mar-24 00:31N 40°53' E 029°11'0 0.0
2015-Mar-23 23:31N 40°53' E 029°11'0 0.0
2015-Mar-23 22:25N 40°53' E 029°11'0 0.0
2015-Mar-23 21:31N 40°53' E 029°11'0 0.0
2015-Mar-23 20:31N 40°53' E 029°11'0 0.0
2015-Mar-23 19:19N 40°53' E 029°11'0 0.0
2015-Mar-23 18:31N 40°53' E 029°11'0 0.0
2015-Mar-23 17:25N 40°53' E 029°11'0 0.1
2015-Mar-23 16:31N 40°53' E 029°11'0 0.0
2015-Mar-23 15:25N 40°53' E 029°11'0 0.0
2015-Mar-23 14:31N 40°53' E 029°11'0 0.0
2015-Mar-23 13:31N 40°53' E 029°11'0 0.0
2015-Mar-23 12:25N 40°53' E 029°11'0 0.0
2015-Mar-23 11:31N 40°53' E 029°11'0 0.0
2015-Mar-23 10:25N 40°53' E 029°11'0 0.0
2015-Mar-23 09:19N 40°53' E 029°11'0 0.0
2015-Mar-23 08:31N 40°53' E 029°11'0 0.0
2015-Mar-23 07:28N 40°53' E 029°11'0 0.0
2015-Mar-23 06:28N 40°53' E 029°11'0 0.0
2015-Mar-23 05:16N 40°53' E 029°11'0 0.0
2015-Mar-23 04:28N 40°53' E 029°11'0 0.0
2015-Mar-23 03:22N 40°53' E 029°11'0 0.0
2015-Mar-23 02:28N 40°53' E 029°11'0 0.0
2015-Mar-23 01:28N 40°53' E 029°11'0 0.0
2015-Mar-23 00:28N 40°53' E 029°11'0 0.0
2015-Mar-22 23:22N 40°53' E 029°11'0 0.0
2015-Mar-22 22:28N 40°53' E 029°11'0 0.0
2015-Mar-22 21:22N 40°53' E 029°11'0 0.0
2015-Mar-22 20:28N 40°53' E 029°11'0 0.0
2015-Mar-22 19:28N 40°53' E 029°11'0 0.0
2015-Mar-22 18:22N 40°53' E 029°11'0 0.0
2015-Mar-22 17:28N 40°53' E 029°11'0 0.0
2015-Mar-22 16:28N 40°53' E 029°11'0 0.0
2015-Mar-22 15:22N 40°53' E 029°11'0 0.0
2015-Mar-22 14:31N 40°53' E 029°11'0 0.0
2015-Mar-22 13:31N 40°53' E 029°11'0 0.0
2015-Mar-22 12:22N 40°53' E 029°11'0 0.0
2015-Mar-22 11:28N 40°53' E 029°11'0 0.0
2015-Mar-22 10:28N 40°53' E 029°11'0 0.0
2015-Mar-22 09:22N 40°53' E 029°11'0 0.0
2015-Mar-22 08:28N 40°53' E 029°11'0 0.1
2015-Mar-22 07:28N 40°53' E 029°11'0 0.0
2015-Mar-22 06:28N 40°53' E 029°11'0 0.1
2015-Mar-22 05:28N 40°53' E 029°11'0 0.0
2015-Mar-22 04:28N 40°53' E 029°11'0 0.0
2015-Mar-22 03:10N 40°53' E 029°11'0 0.0
2015-Mar-22 02:28N 40°53' E 029°11'0 0.0
2015-Mar-22 01:11N 40°53' E 029°11'0 0.0
2015-Mar-22 00:29N 40°53' E 029°11'0 0.0
2015-Mar-21 23:28N 40°53' E 029°11'0 0.0
2015-Mar-21 22:28N 40°53' E 029°11'0 0.0
2015-Mar-21 21:28N 40°53' E 029°11'0 0.0
2015-Mar-21 20:22N 40°53' E 029°11'0 0.1
2015-Mar-21 19:28N 40°53' E 029°11'0 0.0
2015-Mar-21 18:16N 40°53' E 029°11'0 0.0
2015-Mar-21 17:28N 40°53' E 029°11'0 0.1
2015-Mar-21 16:16N 40°53' E 029°11'0 0.0
2015-Mar-21 15:22N 40°53' E 029°11'0 0.0
2015-Mar-21 14:28N 40°53' E 029°11'0 0.0
2015-Mar-21 13:16N 40°53' E 029°11'0 0.0
2015-Mar-21 12:28N 40°53' E 029°11'0 0.0
2015-Mar-21 11:22N 40°53' E 029°11'0 0.0
2015-Mar-21 10:28N 40°53' E 029°11'0 0.0
2015-Mar-21 09:22N 40°53' E 029°11'0 0.1
2015-Mar-21 08:31N 40°53' E 029°11'0 0.0
2015-Mar-21 07:31N 40°53' E 029°11'0 0.0
2015-Mar-21 06:31N 40°53' E 029°11'0 0.0
2015-Mar-21 05:25N 40°53' E 029°11'0 0.0
2015-Mar-21 04:31N 40°53' E 029°11'0 0.0
2015-Mar-21 03:07N 40°53' E 029°11'0 0.1
2015-Mar-21 02:07N 40°53' E 029°11'0 0.1
2015-Mar-21 01:33N 40°53' E 029°11'8 7.5
2015-Mar-21 00:32N 40°47' E 029°04'1110.7
2015-Mar-20 23:29N 40°44' E 028°50'  
Track history (hours):
 
Tides and Currents Weather Stations Pressure Air Temp Water Temp Dewpoint Dewpoint Depression Visibility Wind Speed Wind Dir Waves Ship Positions

M/V Bugra Tomba

Last reported at 2015-Mar-25 20:09 UTC. Time now 2015-Mar-28 14:22 UTC.
Position N 42°11' E 028°23'.

Length 99 m; draft 3.7 m.

Type: Ship (hazmat cat D). MMSI: 271000025.

Date/timePositionNaut miles runAvg speedWind from/ knotsBaromVisibWave heightAir tempDewpointWater temp
2015-Mar-25 20:09N 42°11' E 028°23'3910.7
2015-Mar-25 16:28N 41°39' E 028°53'1110.5
2015-Mar-25 15:24N 41°29' E 029°02'910.6
2015-Mar-25 14:33N 41°21' E 029°07'24 7.9
2015-Mar-25 11:33N 40°58' E 028°59'4 4.4
2015-Mar-25 10:33N 40°58' E 028°53'0 0.0
2015-Mar-25 06:33N 40°58' E 028°53'0 0.0
2015-Mar-25 05:33N 40°58' E 028°53'0 0.0
2015-Mar-25 03:03N 40°58' E 028°53'0 0.0
2015-Mar-24 21:15N 40°58' E 028°53'0 0.0
2015-Mar-24 20:32N 40°58' E 028°53'0 0.0
2015-Mar-24 19:30N 40°58' E 028°53'2 1.9
2015-Mar-24 18:30N 40°57' E 028°55'1010.2
2015-Mar-24 17:33N 40°54' E 029°07'3 2.8
2015-Mar-24 16:31N 40°53' E 029°11'0 0.0
2015-Mar-24 15:13N 40°53' E 029°11'0 0.0
2015-Mar-24 14:31N 40°53' E 029°11'0 0.1
2015-Mar-24 13:25N 40°53' E 029°11'0 0.0
2015-Mar-24 12:31N 40°53' E 029°11'0 0.1
2015-Mar-24 11:25N 40°53' E 029°11'0 0.0
2015-Mar-24 09:31N 40°53' E 029°11'0 0.0
2015-Mar-24 08:31N 40°53' E 029°11'0 0.0
2015-Mar-24 07:19N 40°53' E 029°11'0 0.0
2015-Mar-24 06:31N 40°53' E 029°11'0 0.0
2015-Mar-24 05:31N 40°53' E 029°11'0 0.0
2015-Mar-24 04:31N 40°53' E 029°11'0 0.0
2015-Mar-24 03:31N 40°53' E 029°11'0 0.0
2015-Mar-24 02:31N 40°53' E 029°11'0 0.0
2015-Mar-24 01:31N 40°53' E 029°11'0 0.0
2015-Mar-24 00:31N 40°53' E 029°11'0 0.0
2015-Mar-23 23:31N 40°53' E 029°11'0 0.0
2015-Mar-23 22:25N 40°53' E 029°11'0 0.0
2015-Mar-23 21:31N 40°53' E 029°11'0 0.0
2015-Mar-23 20:31N 40°53' E 029°11'0 0.0
2015-Mar-23 19:19N 40°53' E 029°11'0 0.0
2015-Mar-23 18:31N 40°53' E 029°11'0 0.0
2015-Mar-23 17:25N 40°53' E 029°11'0 0.1
2015-Mar-23 16:31N 40°53' E 029°11'0 0.0
2015-Mar-23 15:25N 40°53' E 029°11'0 0.0
2015-Mar-23 14:31N 40°53' E 029°11'0 0.0
2015-Mar-23 13:31N 40°53' E 029°11'0 0.0
2015-Mar-23 12:25N 40°53' E 029°11'0 0.0
2015-Mar-23 11:31N 40°53' E 029°11'0 0.0
2015-Mar-23 10:25N 40°53' E 029°11'0 0.0
2015-Mar-23 09:19N 40°53' E 029°11'0 0.0
2015-Mar-23 08:31N 40°53' E 029°11'0 0.0
2015-Mar-23 07:28N 40°53' E 029°11'0 0.0
2015-Mar-23 06:28N 40°53' E 029°11'0 0.0
2015-Mar-23 05:16N 40°53' E 029°11'0 0.0
2015-Mar-23 04:28N 40°53' E 029°11'0 0.0
2015-Mar-23 03:22N 40°53' E 029°11'0 0.0
2015-Mar-23 02:28N 40°53' E 029°11'0 0.0
2015-Mar-23 01:28N 40°53' E 029°11'0 0.0
2015-Mar-23 00:28N 40°53' E 029°11'0 0.0
2015-Mar-22 23:22N 40°53' E 029°11'0 0.0
2015-Mar-22 22:28N 40°53' E 029°11'0 0.0
2015-Mar-22 21:22N 40°53' E 029°11'0 0.0
2015-Mar-22 20:28N 40°53' E 029°11'0 0.0
2015-Mar-22 19:28N 40°53' E 029°11'0 0.0
2015-Mar-22 18:22N 40°53' E 029°11'0 0.0
2015-Mar-22 17:28N 40°53' E 029°11'0 0.0
2015-Mar-22 16:28N 40°53' E 029°11'0 0.0
2015-Mar-22 15:22N 40°53' E 029°11'0 0.0
2015-Mar-22 14:31N 40°53' E 029°11'0 0.0
2015-Mar-22 13:31N 40°53' E 029°11'0 0.0
2015-Mar-22 12:22N 40°53' E 029°11'0 0.0
2015-Mar-22 11:28N 40°53' E 029°11'0 0.0
2015-Mar-22 10:28N 40°53' E 029°11'0 0.0
2015-Mar-22 09:22N 40°53' E 029°11'0 0.0
2015-Mar-22 08:28N 40°53' E 029°11'0 0.1
2015-Mar-22 07:28N 40°53' E 029°11'0 0.0
2015-Mar-22 06:28N 40°53' E 029°11'0 0.1
2015-Mar-22 05:28N 40°53' E 029°11'0 0.0
2015-Mar-22 04:28N 40°53' E 029°11'0 0.0
2015-Mar-22 03:10N 40°53' E 029°11'0 0.0
2015-Mar-22 02:28N 40°53' E 029°11'0 0.0
2015-Mar-22 01:11N 40°53' E 029°11'0 0.0
2015-Mar-22 00:29N 40°53' E 029°11'0 0.0
2015-Mar-21 23:28N 40°53' E 029°11'0 0.0
2015-Mar-21 22:28N 40°53' E 029°11'0 0.0
2015-Mar-21 21:28N 40°53' E 029°11'0 0.0
2015-Mar-21 20:22N 40°53' E 029°11'0 0.1
2015-Mar-21 19:28N 40°53' E 029°11'0 0.0
2015-Mar-21 18:16N 40°53' E 029°11'0 0.0
2015-Mar-21 17:28N 40°53' E 029°11'0 0.1
2015-Mar-21 16:16N 40°53' E 029°11'0 0.0
2015-Mar-21 15:22N 40°53' E 029°11'0 0.0
2015-Mar-21 14:28N 40°53' E 029°11'0 0.0
2015-Mar-21 13:16N 40°53' E 029°11'0 0.0
2015-Mar-21 12:28N 40°53' E 029°11'0 0.0
2015-Mar-21 11:22N 40°53' E 029°11'0 0.0
2015-Mar-21 10:28N 40°53' E 029°11'0 0.0
2015-Mar-21 09:22N 40°53' E 029°11'0 0.1
2015-Mar-21 08:31N 40°53' E 029°11'0 0.0
2015-Mar-21 07:31N 40°53' E 029°11'0 0.0
2015-Mar-21 06:31N 40°53' E 029°11'0 0.0
2015-Mar-21 05:25N 40°53' E 029°11'0 0.0
2015-Mar-21 04:31N 40°53' E 029°11'0 0.0
2015-Mar-21 03:07N 40°53' E 029°11'0 0.1
2015-Mar-21 02:07N 40°53' E 029°11'0 0.1
2015-Mar-21 01:33N 40°53' E 029°11'8 7.5
2015-Mar-21 00:32N 40°47' E 029°04'1110.7
2015-Mar-20 23:29N 40°44' E 028°50'  

Dump ship's entire track history